Time;durP1;ratioP1;P1;durP2;ratioP2;P2;SDS_P1;SDS_P2;PMS_P1;PMS_P2;Temp;Humidity;BMP_temperature;BMP_pressure;BME280_temperature;BME280_humidity;BME280_pressure;Samples;Min_cycle;Max_cycle;Signal;HPM_P1;HPM_P2
2023/05/02 00:01:55;;;;;;;11.43;5.22;;;10.90;99.90;;;;;;5012633;28;20046;-65
2023/05/02 00:04:21;;;;;;;5.50;2.75;;;10.90;99.90;;;;;;5013421;28;20096;-65
2023/05/02 00:06:46;;;;;;;5.65;2.75;;;10.90;99.90;;;;;;5012665;28;20054;-71
2023/05/02 00:09:13;;;;;;;5.00;2.20;;;10.90;99.90;;;;;;5013110;28;20057;-70
2023/05/02 00:11:38;;;;;;;4.80;3.22;;;10.80;99.90;;;;;;5012608;28;20057;-68
2023/05/02 00:14:04;;;;;;;5.55;2.70;;;10.70;99.90;;;;;;5012969;28;20038;-66
2023/05/02 00:16:30;;;;;;;6.05;3.17;;;10.60;99.90;;;;;;5015277;28;20048;-71
2023/05/02 00:18:55;;;;;;;7.03;3.47;;;10.50;99.90;;;;;;5017176;28;20073;-66
2023/05/02 00:21:21;;;;;;;6.20;3.10;;;10.50;99.90;;;;;;5015909;28;20136;-68
2023/05/02 00:23:47;;;;;;;8.23;3.10;;;10.50;99.90;;;;;;5000161;28;20095;-69
2023/05/02 00:26:12;;;;;;;5.97;2.97;;;10.30;99.90;;;;;;5017058;28;20163;-70
2023/05/02 00:28:39;;;;;;;9.52;4.05;;;10.40;99.90;;;;;;5015839;28;20054;-70
2023/05/02 00:31:04;;;;;;;6.40;3.50;;;10.40;99.90;;;;;;5016727;28;20092;-67
2023/05/02 00:33:30;;;;;;;8.50;3.60;;;10.40;99.90;;;;;;4999743;28;20077;-71
2023/05/02 00:35:56;;;;;;;7.50;2.90;;;10.40;99.90;;;;;;4999610;28;20549;-71
2023/05/02 00:38:21;;;;;;;8.20;3.35;;;10.30;99.90;;;;;;5016585;28;20042;-71
2023/05/02 00:40:50;;;;;;;7.00;3.40;;;10.30;99.90;;;;;;5015900;28;20054;-72
2023/05/02 00:43:16;;;;;;;6.57;3.30;;;10.30;99.90;;;;;;5016794;28;20089;-72
2023/05/02 00:45:44;;;;;;;5.60;3.35;;;10.30;99.90;;;;;;4999079;28;20081;-69
2023/05/02 00:48:11;;;;;;;5.80;3.05;;;10.30;99.90;;;;;;5016690;28;20045;-71
2023/05/02 00:50:41;;;;;;;10.00;3.67;;;10.30;99.90;;;;;;5016627;28;20046;-72
2023/05/02 00:53:08;;;;;;;6.13;3.45;;;10.30;99.90;;;;;;5016857;28;20386;-71
2023/05/02 00:55:35;;;;;;;7.95;3.60;;;10.30;99.90;;;;;;4999517;28;20474;-73
2023/05/02 00:58:12;;;;;;;8.80;3.50;;;10.30;99.90;;;;;;5015252;28;20050;-74
2023/05/02 01:01:09;;;;;;;7.40;3.22;;;10.30;99.90;;;;;;5017272;28;20057;-74
2023/05/02 01:03:59;;;;;;;5.50;3.28;;;10.30;99.90;;;;;;5016463;28;20057;-72
2023/05/02 01:06:59;;;;;;;7.25;3.10;;;10.30;99.90;;;;;;5016873;28;20395;-72
2023/05/02 01:09:55;;;;;;;6.95;3.25;;;10.20;99.90;;;;;;5015316;28;20108;-74
2023/05/02 01:12:38;;;;;;;7.13;2.70;;;10.20;99.90;;;;;;5016816;28;20046;-71
2023/05/02 01:15:09;;;;;;;6.60;2.90;;;10.20;99.90;;;;;;5015501;28;20046;-70
2023/05/02 01:17:37;;;;;;;8.40;3.30;;;10.20;99.90;;;;;;5015992;28;20054;-71
2023/05/02 01:20:07;;;;;;;6.47;3.13;;;10.30;99.90;;;;;;5015078;28;20050;-67
2023/05/02 01:22:36;;;;;;;6.18;3.42;;;10.30;99.90;;;;;;5016058;28;20054;-68
2023/05/02 01:25:21;;;;;;;11.10;3.80;;;10.20;99.90;;;;;;5016509;28;20053;-69
2023/05/02 01:27:54;;;;;;;7.57;3.17;;;10.20;99.90;;;;;;4998565;28;20191;-68
2023/05/02 01:30:21;;;;;;;7.15;3.30;;;10.20;99.90;;;;;;5015846;28;20050;-69
2023/05/02 01:32:51;;;;;;;7.85;2.65;;;10.20;99.90;;;;;;5015835;28;20045;-66
2023/05/02 01:35:18;;;;;;;5.65;2.45;;;10.20;99.90;;;;;;5015811;28;20050;-69
2023/05/02 01:37:45;;;;;;;6.20;1.80;;;10.10;99.90;;;;;;5015784;28;20050;-70
2023/05/02 01:40:15;;;;;;;9.13;2.50;;;10.10;99.90;;;;;;5014576;28;20050;-68
2023/05/02 01:42:42;;;;;;;7.55;2.00;;;10.00;99.90;;;;;;5015642;28;20144;-71
2023/05/02 01:45:10;;;;;;;9.90;2.33;;;9.90;99.90;;;;;;5015277;28;20072;-69
2023/05/02 01:47:38;;;;;;;10.23;2.30;;;9.80;99.90;;;;;;5015497;28;20053;-67
2023/05/02 01:50:08;;;;;;;6.13;1.90;;;9.90;99.90;;;;;;5015190;28;20564;-67
2023/05/02 01:52:35;;;;;;;10.35;2.25;;;9.90;99.90;;;;;;4998166;28;20494;-71
2023/05/02 01:55:03;;;;;;;14.00;2.58;;;9.90;99.90;;;;;;5015241;28;20050;-72
2023/05/02 01:57:30;;;;;;;7.85;2.50;;;9.80;99.90;;;;;;5015250;28;20058;-66
2023/05/02 01:59:58;;;;;;;9.82;2.42;;;9.80;99.90;;;;;;5015230;28;20050;-68
2023/05/02 02:02:26;;;;;;;9.05;2.25;;;9.70;99.90;;;;;;5015520;28;20490;-69
2023/05/02 02:04:55;;;;;;;4.40;2.20;;;9.70;99.90;;;;;;5016023;28;20390;-69
2023/05/02 02:07:21;;;;;;;8.68;2.50;;;9.70;99.90;;;;;;5014045;28;20053;-71
2023/05/02 02:09:46;;;;;;;7.47;1.60;;;9.70;99.90;;;;;;4997830;28;20046;-67
2023/05/02 02:12:32;;;;;;;6.07;1.60;;;9.60;99.90;;;;;;5013898;28;20052;-67
2023/05/02 02:15:22;;;;;;;9.55;1.80;;;9.50;99.90;;;;;;4997853;28;20050;-67
2023/05/02 02:17:57;;;;;;;9.30;2.40;;;9.50;99.90;;;;;;5015062;28;20081;-68
2023/05/02 02:20:24;;;;;;;11.80;2.20;;;9.70;99.90;;;;;;5015015;28;20152;-67
2023/05/02 02:22:51;;;;;;;8.98;2.25;;;9.30;99.90;;;;;;5013958;28;20045;-68
2023/05/02 02:25:18;;;;;;;7.95;2.42;;;9.30;99.90;;;;;;5015673;28;20351;-68
2023/05/02 02:27:44;;;;;;;10.02;2.40;;;9.40;99.90;;;;;;4998548;28;20045;-67
2023/05/02 02:30:12;;;;;;;10.65;2.13;;;9.10;99.90;;;;;;5014729;28;20428;-69
2023/05/02 02:32:38;;;;;;;8.40;1.92;;;9.20;99.90;;;;;;5015182;28;20132;-66
2023/05/02 02:35:05;;;;;;;12.27;2.92;;;9.20;99.90;;;;;;5014754;28;20100;-69
2023/05/02 02:37:34;;;;;;;8.52;2.40;;;9.20;99.90;;;;;;5013509;28;20050;-67
2023/05/02 02:40:41;;;;;;;15.13;2.20;;;9.20;99.90;;;;;;5014742;28;20490;-66
2023/05/02 02:43:19;;;;;;;14.60;2.50;;;9.10;99.90;;;;;;5012246;28;20173;-69
2023/05/02 02:46:03;;;;;;;13.30;3.13;;;9.00;99.90;;;;;;5014602;28;20054;-67
2023/05/02 02:48:40;;;;;;;11.65;3.30;;;9.10;99.90;;;;;;5013800;28;20049;-66
2023/05/02 02:51:21;;;;;;;7.35;2.35;;;9.10;99.90;;;;;;5015020;28;20053;-67
2023/05/02 02:54:14;;;;;;;8.38;2.08;;;9.00;99.90;;;;;;5013519;28;20123;-67
2023/05/02 02:56:43;;;;;;;7.30;2.25;;;9.00;99.90;;;;;;5014755;28;20421;-67
2023/05/02 02:59:25;;;;;;;10.90;2.58;;;8.80;99.90;;;;;;5014589;28;20470;-67
2023/05/02 03:02:07;;;;;;;11.02;1.98;;;8.80;99.90;;;;;;5013536;28;20050;-65
2023/05/02 03:04:36;;;;;;;7.88;1.92;;;8.80;99.90;;;;;;5014794;28;20108;-67
2023/05/02 03:07:02;;;;;;;11.57;2.53;;;8.80;99.90;;;;;;5014206;28;20129;-67
2023/05/02 03:09:42;;;;;;;4.72;1.42;;;8.70;99.90;;;;;;5013012;28;20125;-66
2023/05/02 03:12:08;;;;;;;9.73;1.75;;;8.70;99.90;;;;;;5014465;28;20108;-70
2023/05/02 03:14:35;;;;;;;12.02;1.85;;;8.80;99.90;;;;;;5013104;28;20045;-66
2023/05/02 03:17:02;;;;;;;6.60;1.42;;;9.00;99.90;;;;;;5014039;28;20042;-66
2023/05/02 03:19:28;;;;;;;10.73;1.50;;;8.70;99.90;;;;;;5013374;28;20049;-67
2023/05/02 03:21:53;;;;;;;8.80;2.17;;;8.70;99.90;;;;;;5013784;28;20060;-66
2023/05/02 03:24:19;;;;;;;6.15;1.90;;;8.80;99.90;;;;;;5012799;28;20492;-71
2023/05/02 03:26:46;;;;;;;9.63;1.88;;;8.70;99.90;;;;;;5013153;28;20052;-66
2023/05/02 03:29:12;;;;;;;9.15;1.80;;;8.60;99.90;;;;;;5013910;28;20139;-70
2023/05/02 03:31:38;;;;;;;5.00;1.10;;;8.60;99.90;;;;;;5014116;28;20184;-68
2023/05/02 03:34:04;;;;;;;12.63;2.10;;;8.60;99.90;;;;;;5012659;28;20425;-67
2023/05/02 03:36:30;;;;;;;8.52;1.67;;;8.60;99.90;;;;;;5012774;28;20053;-68
2023/05/02 03:38:56;;;;;;;11.90;1.95;;;8.60;99.90;;;;;;5014610;28;20061;-65
2023/05/02 03:41:23;;;;;;;10.50;1.67;;;8.40;99.90;;;;;;5013753;28;20390;-66
2023/05/02 03:43:49;;;;;;;9.68;1.60;;;8.40;99.90;;;;;;5012540;28;20057;-65
2023/05/02 03:46:16;;;;;;;11.15;1.75;;;8.40;99.90;;;;;;5013926;28;20486;-65
2023/05/02 03:48:42;;;;;;;9.70;1.60;;;8.40;99.90;;;;;;5013738;28;20100;-65
2023/05/02 03:51:08;;;;;;;7.63;1.52;;;8.30;99.90;;;;;;5013399;28;20433;-65
2023/05/02 03:53:35;;;;;;;8.95;2.05;;;8.30;99.90;;;;;;5017669;28;20073;-65
2023/05/02 03:56:01;;;;;;;7.82;1.50;;;8.30;99.90;;;;;;5016696;28;20054;-65
2023/05/02 03:58:27;;;;;;;6.40;1.23;;;8.50;99.90;;;;;;5018226;28;20082;-66
2023/05/02 04:00:53;;;;;;;5.60;2.05;;;8.30;99.90;;;;;;5017582;28;20569;-65
2023/05/02 04:03:20;;;;;;;5.25;1.13;;;8.50;99.90;;;;;;5018037;28;20042;-65
2023/05/02 04:05:46;;;;;;;5.53;1.25;;;8.40;99.90;;;;;;5017452;28;20061;-65
2023/05/02 04:08:12;;;;;;;6.65;1.20;;;8.70;99.90;;;;;;5017461;28;20050;-67
2023/05/02 04:10:38;;;;;;;3.72;0.95;;;8.30;99.90;;;;;;5017647;28;20478;-66
2023/05/02 04:13:03;;;;;;;4.13;0.93;;;8.10;99.90;;;;;;5017887;28;20049;-65
2023/05/02 04:15:30;;;;;;;5.45;1.70;;;8.20;99.90;;;;;;5016347;28;20061;-65
2023/05/02 04:17:59;;;;;;;5.30;1.20;;;8.20;99.90;;;;;;5016306;28;20054;-65
2023/05/02 04:20:25;;;;;;;6.68;1.10;;;8.20;99.90;;;;;;5017486;28;20124;-66
2023/05/02 04:22:51;;;;;;;7.35;1.35;;;8.10;99.90;;;;;;5016008;28;20128;-65
2023/05/02 04:25:17;;;;;;;6.32;1.00;;;8.30;99.90;;;;;;5016089;28;20120;-65
2023/05/02 04:27:43;;;;;;;4.78;0.90;;;8.30;99.90;;;;;;5017048;28;20046;-66
2023/05/02 04:30:11;;;;;;;4.97;1.00;;;8.00;99.90;;;;;;5016882;28;20117;-66
2023/05/02 04:32:37;;;;;;;4.35;0.98;;;8.10;99.90;;;;;;5016372;28;20543;-65
2023/05/02 04:35:04;;;;;;;5.90;1.00;;;8.10;99.90;;;;;;5016835;28;20098;-66
2023/05/02 04:37:30;;;;;;;5.95;0.80;;;8.10;99.90;;;;;;5017700;28;20092;-65
2023/05/02 04:39:56;;;;;;;5.07;0.88;;;8.50;99.90;;;;;;5017109;28;20428;-66
2023/05/02 04:42:22;;;;;;;3.75;0.90;;;8.10;99.90;;;;;;5000157;28;20042;-66
2023/05/02 04:44:48;;;;;;;4.82;1.10;;;8.00;99.90;;;;;;5016093;28;20101;-65
2023/05/02 04:47:14;;;;;;;2.88;0.80;;;8.10;99.90;;;;;;5016741;28;20045;-65
2023/05/02 04:49:40;;;;;;;3.50;0.73;;;8.10;99.90;;;;;;5016568;28;20477;-65
2023/05/02 04:52:06;;;;;;;4.50;0.73;;;8.20;99.90;;;;;;5016599;28;20045;-66
2023/05/02 04:54:33;;;;;;;5.70;0.70;;;8.40;99.90;;;;;;5015208;28;20073;-65
2023/05/02 04:57:02;;;;;;;3.53;0.70;;;8.10;99.90;;;;;;5016150;28;20050;-66
2023/05/02 04:59:28;;;;;;;4.15;0.90;;;8.10;99.90;;;;;;5015841;28;20046;-65
2023/05/02 05:01:54;;;;;;;2.05;0.70;;;8.00;99.90;;;;;;5014812;28;20054;-66
2023/05/02 05:04:20;;;;;;;4.72;0.70;;;8.10;99.90;;;;;;5015301;28;20128;-66
2023/05/02 05:06:47;;;;;;;7.10;0.70;;;8.10;99.90;;;;;;5015184;28;20053;-65
2023/05/02 05:09:12;;;;;;;3.60;0.90;;;8.10;99.90;;;;;;5014251;28;20052;-65
2023/05/02 05:11:38;;;;;;;4.85;0.90;;;8.30;99.90;;;;;;5013943;28;20128;-66
2023/05/02 05:14:04;;;;;;;4.75;1.02;;;8.40;99.90;;;;;;5013832;28;20137;-68
2023/05/02 05:16:30;;;;;;;5.18;1.65;;;8.10;99.90;;;;;;5015845;28;20113;-65
2023/05/02 05:18:56;;;;;;;5.95;1.20;;;8.10;99.90;;;;;;5015029;28;20132;-67
2023/05/02 05:21:22;;;;;;;7.38;1.02;;;8.00;99.90;;;;;;5015312;28;20081;-65
2023/05/02 05:23:48;;;;;;;6.55;1.17;;;8.30;99.90;;;;;;4997492;28;20133;-66
2023/05/02 05:26:15;;;;;;;8.63;1.30;;;8.00;99.90;;;;;;5013831;28;20058;-66
2023/05/02 05:28:41;;;;;;;3.92;1.30;;;8.20;99.90;;;;;;5015345;28;20042;-65
2023/05/02 05:31:08;;;;;;;4.78;1.55;;;8.00;99.90;;;;;;5014122;28;20066;-68
2023/05/02 05:33:35;;;;;;;5.75;1.20;;;7.90;99.90;;;;;;5014310;28;20052;-66
2023/05/02 05:36:11;;;;;;;3.65;1.10;;;7.90;99.90;;;;;;5014767;28;20076;-66
2023/05/02 05:38:37;;;;;;;7.57;1.40;;;7.90;99.90;;;;;;5014682;28;20054;-66
2023/05/02 05:41:04;;;;;;;8.07;1.25;;;7.90;99.90;;;;;;5014597;28;20095;-66
2023/05/02 05:43:30;;;;;;;4.97;0.90;;;7.80;99.90;;;;;;5013506;28;20057;-65
2023/05/02 05:45:56;;;;;;;6.63;1.40;;;8.30;99.90;;;;;;5014593;28;20053;-67
2023/05/02 05:48:22;;;;;;;5.20;1.25;;;7.80;99.90;;;;;;5013312;28;20042;-68
2023/05/02 05:50:48;;;;;;;9.32;1.42;;;7.90;99.90;;;;;;5014499;28;20046;-66
2023/05/02 05:53:14;;;;;;;8.02;1.40;;;7.90;99.90;;;;;;5014413;28;20041;-66
2023/05/02 05:55:41;;;;;;;6.45;1.35;;;7.90;99.90;;;;;;5013266;28;20052;-66
2023/05/02 05:58:07;;;;;;;4.18;1.30;;;7.90;99.90;;;;;;4976285;28;1117644;-66
2023/05/02 06:00:36;;;;;;;7.53;1.40;;;7.80;99.90;;;;;;5016021;28;20407;-66
2023/05/02 06:03:02;;;;;;;7.13;1.45;;;7.90;99.90;;;;;;5015793;28;20513;-66
2023/05/02 06:05:29;;;;;;;6.32;1.17;;;8.10;99.90;;;;;;5015206;28;20089;-65
2023/05/02 06:07:55;;;;;;;6.13;1.33;;;8.00;99.90;;;;;;5015187;28;20120;-65
2023/05/02 06:10:21;;;;;;;7.47;1.58;;;8.30;99.90;;;;;;5014817;28;20490;-66
2023/05/02 06:12:47;;;;;;;6.30;1.23;;;8.10;99.90;;;;;;5013712;28;20041;-66
2023/05/02 06:15:12;;;;;;;5.60;1.20;;;8.50;99.90;;;;;;5013385;28;20050;-67
2023/05/02 06:17:38;;;;;;;8.68;1.30;;;7.90;99.90;;;;;;5013946;28;20112;-66
2023/05/02 06:20:05;;;;;;;5.40;1.08;;;8.50;99.90;;;;;;5014476;28;20042;-67
2023/05/02 06:22:31;;;;;;;3.38;1.13;;;8.20;99.90;;;;;;5014960;28;20085;-66
2023/05/02 06:24:57;;;;;;;7.45;1.85;;;8.30;99.90;;;;;;5014836;28;20128;-66
2023/05/02 06:27:22;;;;;;;8.30;1.27;;;8.50;99.90;;;;;;5013585;28;20046;-66
2023/05/02 06:29:52;;;;;;;7.40;1.25;;;8.30;99.90;;;;;;4982021;28;20061;-65
2023/05/02 06:32:18;;;;;;;6.55;1.48;;;8.40;99.90;;;;;;5013748;28;20434;-66
2023/05/02 06:34:44;;;;;;;6.43;1.13;;;8.40;99.90;;;;;;5014631;28;20046;-65
2023/05/02 06:37:10;;;;;;;5.30;1.30;;;8.70;99.90;;;;;;5014643;28;20081;-66
2023/05/02 06:39:36;;;;;;;5.00;1.45;;;8.40;99.90;;;;;;5013629;28;20129;-65
2023/05/02 06:42:01;;;;;;;4.30;1.33;;;8.70;99.90;;;;;;5013549;28;20089;-65
2023/05/02 06:44:27;;;;;;;9.20;1.30;;;8.50;99.90;;;;;;5014615;28;20487;-66
2023/05/02 06:46:54;;;;;;;4.85;0.93;;;8.60;99.90;;;;;;5014366;28;20056;-65
2023/05/02 06:49:20;;;;;;;5.97;1.10;;;8.60;99.90;;;;;;5014417;28;20049;-65
2023/05/02 06:51:46;;;;;;;5.90;1.45;;;8.60;99.90;;;;;;5013774;28;20053;-65
2023/05/02 06:54:13;;;;;;;6.20;1.10;;;8.60;99.90;;;;;;5014992;28;20046;-66
2023/05/02 06:56:39;;;;;;;5.07;1.60;;;8.70;99.90;;;;;;5013136;28;20046;-65
2023/05/02 06:59:05;;;;;;;4.55;1.30;;;8.50;99.90;;;;;;5014229;28;20060;-65
2023/05/02 07:01:31;;;;;;;6.43;1.30;;;8.90;99.90;;;;;;5013765;28;20049;-66
2023/05/02 07:03:56;;;;;;;5.95;1.30;;;8.60;99.90;;;;;;5014041;28;20466;-66
2023/05/02 07:06:23;;;;;;;6.72;1.30;;;8.60;99.90;;;;;;5013112;28;20128;-66
2023/05/02 07:08:48;;;;;;;9.00;1.60;;;8.70;99.90;;;;;;5013146;28;20054;-65
2023/05/02 07:11:14;;;;;;;3.90;1.10;;;9.10;99.90;;;;;;4996827;28;20390;-65
2023/05/02 07:13:40;;;;;;;7.00;1.10;;;8.70;99.90;;;;;;5014001;28;20046;-65
2023/05/02 07:16:06;;;;;;;4.70;1.23;;;8.70;99.90;;;;;;5013580;28;20145;-65
2023/05/02 07:18:32;;;;;;;4.38;1.15;;;8.80;99.90;;;;;;5012981;28;20050;-67
2023/05/02 07:20:59;;;;;;;5.95;1.52;;;8.80;99.90;;;;;;5014208;28;20038;-66
2023/05/02 07:23:25;;;;;;;6.60;1.45;;;8.90;99.90;;;;;;5012832;28;20100;-67
2023/05/02 07:25:51;;;;;;;7.47;1.63;;;8.90;99.90;;;;;;5013877;28;20494;-65
2023/05/02 07:28:16;;;;;;;13.18;2.20;;;8.90;99.90;;;;;;5012924;28;20479;-67
2023/05/02 07:30:42;;;;;;;5.03;1.38;;;9.00;99.90;;;;;;5012654;28;20046;-66
2023/05/02 07:33:08;;;;;;;7.70;1.55;;;9.00;99.90;;;;;;5014208;28;20042;-65
2023/05/02 07:35:34;;;;;;;4.18;1.27;;;9.10;99.90;;;;;;5014346;28;20371;-65
2023/05/02 07:37:59;;;;;;;6.13;1.40;;;9.10;99.90;;;;;;5013763;28;20144;-65
2023/05/02 07:40:25;;;;;;;3.25;1.30;;;9.20;99.90;;;;;;5014250;28;20045;-65
2023/05/02 07:42:51;;;;;;;4.85;1.40;;;9.10;99.90;;;;;;5013979;28;20053;-64
2023/05/02 07:45:16;;;;;;;5.95;1.48;;;9.20;99.90;;;;;;5013666;28;20041;-67
2023/05/02 07:47:42;;;;;;;5.78;1.35;;;9.20;99.90;;;;;;5013321;28;20487;-66
2023/05/02 07:50:08;;;;;;;4.97;1.10;;;9.10;99.90;;;;;;5013674;28;20042;-65
2023/05/02 07:52:34;;;;;;;6.15;1.33;;;9.30;99.90;;;;;;5013781;28;20060;-65
2023/05/02 07:55:00;;;;;;;5.22;1.23;;;9.30;99.90;;;;;;4996087;28;20045;-66
2023/05/02 07:57:26;;;;;;;5.20;1.30;;;9.30;99.90;;;;;;5013661;28;20089;-65
2023/05/02 07:59:51;;;;;;;7.05;1.60;;;9.40;99.90;;;;;;5014327;28;20474;-66
2023/05/02 08:02:19;;;;;;;4.75;1.27;;;9.40;99.90;;;;;;5014015;28;20520;-65
2023/05/02 08:04:46;;;;;;;7.47;1.40;;;9.40;99.90;;;;;;5013654;28;20397;-65
2023/05/02 08:07:12;;;;;;;4.95;1.27;;;9.50;99.90;;;;;;5013345;28;20581;-64
2023/05/02 08:09:37;;;;;;;8.85;1.02;;;9.50;99.90;;;;;;5012465;28;20081;-64
2023/05/02 08:12:04;;;;;;;5.53;1.27;;;9.50;99.90;;;;;;5013647;28;20099;-65
2023/05/02 08:14:30;;;;;;;6.72;1.30;;;9.50;99.90;;;;;;5014034;28;20080;-66
2023/05/02 08:16:56;;;;;;;6.80;1.20;;;9.50;99.90;;;;;;5013556;28;20061;-64
2023/05/02 08:19:22;;;;;;;6.60;1.13;;;9.50;99.90;;;;;;5014063;28;20049;-65
2023/05/02 08:21:48;;;;;;;5.47;1.45;;;9.50;99.90;;;;;;4996473;28;20050;-65
2023/05/02 08:24:13;;;;;;;3.83;1.20;;;9.60;99.90;;;;;;5013995;28;20482;-65
2023/05/02 08:26:39;;;;;;;4.97;1.30;;;9.70;99.90;;;;;;5013470;28;20470;-67
2023/05/02 08:29:05;;;;;;;5.22;1.30;;;9.70;99.90;;;;;;5013969;28;20081;-66
2023/05/02 08:31:31;;;;;;;5.65;0.98;;;9.70;99.90;;;;;;5013904;28;20053;-65
2023/05/02 08:33:56;;;;;;;2.90;0.90;;;9.70;99.90;;;;;;5013253;28;20042;-66
2023/05/02 08:36:23;;;;;;;6.55;1.10;;;9.70;99.90;;;;;;5013499;28;20068;-67
2023/05/02 08:38:50;;;;;;;2.50;0.90;;;9.80;99.90;;;;;;5017325;28;20088;-67
2023/05/02 08:41:18;;;;;;;5.22;0.90;;;9.80;99.90;;;;;;5016034;28;20053;-68
2023/05/02 08:43:45;;;;;;;3.72;1.10;;;9.90;99.90;;;;;;5015784;28;20038;-67
2023/05/02 08:46:13;;;;;;;2.25;0.75;;;10.00;99.90;;;;;;5016686;28;20092;-67
2023/05/02 08:48:41;;;;;;;2.08;0.60;;;10.00;99.90;;;;;;5017057;28;20474;-67
2023/05/02 08:51:12;;;;;;;2.55;0.80;;;10.00;99.90;;;;;;5016764;28;20141;-67
2023/05/02 08:53:39;;;;;;;3.25;0.63;;;10.20;99.90;;;;;;5015639;28;20402;-67
2023/05/02 08:56:09;;;;;;;2.10;0.60;;;10.40;99.90;;;;;;5016694;28;20089;-66
2023/05/02 08:58:39;;;;;;;2.85;0.60;;;10.50;99.90;;;;;;5015009;28;20136;-67
2023/05/02 09:01:13;;;;;;;3.03;0.80;;;10.50;99.90;;;;;;5016580;28;20128;-67
2023/05/02 09:03:42;;;;;;;3.83;0.60;;;10.50;99.90;;;;;;5016602;28;20049;-67
2023/05/02 09:06:09;;;;;;;2.15;0.50;;;10.50;99.90;;;;;;5015307;28;20042;-66
2023/05/02 09:08:35;;;;;;;3.25;0.60;;;10.40;99.90;;;;;;5016399;28;20433;-66
2023/05/02 09:11:06;;;;;;;3.28;0.50;;;10.40;99.90;;;;;;5015722;28;20125;-68
2023/05/02 09:13:34;;;;;;;2.42;0.63;;;10.50;99.90;;;;;;5016760;28;20045;-71
2023/05/02 09:16:03;;;;;;;1.95;0.50;;;10.50;99.90;;;;;;5016702;28;20108;-69
2023/05/02 09:18:37;;;;;;;1.75;0.47;;;10.40;99.90;;;;;;5016208;28;20046;-69
2023/05/02 09:21:07;;;;;;;1.77;0.50;;;10.50;99.90;;;;;;5015519;28;20081;-69
2023/05/02 09:23:38;;;;;;;2.13;0.77;;;10.50;99.90;;;;;;5014941;28;20100;-72
2023/05/02 09:26:12;;;;;;;2.85;0.70;;;10.50;99.90;;;;;;5015383;28;20129;-68
2023/05/02 09:28:44;;;;;;;3.53;0.57;;;10.50;99.90;;;;;;5015406;28;20054;-68
2023/05/02 09:31:11;;;;;;;2.03;0.77;;;10.50;99.90;;;;;;5016756;28;20046;-66
2023/05/02 09:33:38;;;;;;;5.22;0.77;;;10.40;99.90;;;;;;5016171;28;20091;-68
2023/05/02 09:36:06;;;;;;;1.42;0.50;;;10.40;99.90;;;;;;5016414;28;20053;-68
2023/05/02 09:38:32;;;;;;;2.30;0.85;;;10.30;99.90;;;;;;5016427;28;20132;-69
2023/05/02 09:40:59;;;;;;;3.97;0.70;;;10.50;99.90;;;;;;5015733;28;20054;-70
2023/05/02 09:43:25;;;;;;;2.00;0.65;;;10.50;99.90;;;;;;5015752;28;20038;-67
2023/05/02 09:46:04;;;;;;;1.70;0.43;;;10.60;99.90;;;;;;5015712;28;20128;-67
2023/05/02 09:48:32;;;;;;;1.35;0.30;;;10.70;99.90;;;;;;5014501;28;20048;-68
2023/05/02 09:50:58;;;;;;;2.28;0.50;;;10.70;99.90;;;;;;5015613;28;20042;-74
2023/05/02 09:53:26;;;;;;;2.30;0.57;;;10.80;99.90;;;;;;5015383;28;20050;-68
2023/05/02 09:56:02;;;;;;;1.45;0.50;;;10.70;99.90;;;;;;5015567;28;20132;-68
2023/05/02 09:58:29;;;;;;;3.03;0.57;;;10.70;99.90;;;;;;5015411;28;20494;-68
2023/05/02 10:00:56;;;;;;;3.58;0.60;;;10.70;99.90;;;;;;5015457;28;20046;-69
2023/05/02 10:03:24;;;;;;;5.03;0.52;;;10.60;99.90;;;;;;5014212;28;20046;-68
2023/05/02 10:05:52;;;;;;;1.60;0.47;;;10.70;99.90;;;;;;5015344;28;20121;-71
2023/05/02 10:08:19;;;;;;;3.17;0.60;;;10.70;99.90;;;;;;5014152;28;20398;-70
2023/05/02 10:10:58;;;;;;;1.85;0.68;;;10.70;99.90;;;;;;5016083;28;20096;-67
2023/05/02 10:13:31;;;;;;;2.10;0.80;;;10.60;99.90;;;;;;5015153;28;20111;-67
2023/05/02 10:16:00;;;;;;;;;;;10.60;99.90;;;;;;5015712;28;20049;-69
2023/05/02 10:18:51;;;;;;;2.38;0.70;;;10.70;99.90;;;;;;5015882;28;19979;-66
2023/05/02 10:21:24;;;;;;;1.55;0.70;;;10.50;99.90;;;;;;5015123;28;20084;-68
2023/05/02 10:23:52;;;;;;;3.75;0.93;;;10.40;99.90;;;;;;5015315;28;20053;-68
2023/05/02 10:26:20;;;;;;;4.43;0.90;;;10.40;99.90;;;;;;5014958;28;20053;-67
2023/05/02 10:28:46;;;;;;;3.55;0.98;;;10.30;99.90;;;;;;5013809;28;20085;-66
2023/05/02 10:31:13;;;;;;;3.13;0.60;;;10.30;99.90;;;;;;5015361;28;20049;-66
2023/05/02 10:33:39;;;;;;;1.85;0.43;;;10.40;99.90;;;;;;5015222;28;20108;-71
2023/05/02 10:36:08;;;;;;;1.42;0.60;;;10.40;99.90;;;;;;5013902;28;20049;-66
2023/05/02 10:38:36;;;;;;;1.73;0.40;;;10.40;99.90;;;;;;5013556;28;20042;-66
2023/05/02 10:41:11;;;;;;;4.70;0.63;;;10.50;99.90;;;;;;5015553;28;20067;-66
2023/05/02 10:43:37;;;;;;;2.28;0.50;;;10.60;99.90;;;;;;5014754;28;20034;-69
2023/05/02 10:46:36;;;;;;;3.17;0.68;;;10.70;99.90;;;;;;5014679;28;20387;-66
2023/05/02 10:49:04;;;;;;;1.30;0.52;;;10.90;99.90;;;;;;5014641;28;20402;-67
2023/05/02 10:51:31;;;;;;;2.90;0.77;;;10.90;99.90;;;;;;5014544;28;20133;-70
2023/05/02 10:54:22;;;;;;;4.80;1.20;;;10.90;99.90;;;;;;5013410;28;20080;-68
2023/05/02 10:57:03;;;;;;;1.60;0.50;;;10.80;99.90;;;;;;5013847;28;20132;-68
2023/05/02 10:59:39;;;;;;;2.92;0.60;;;10.80;99.90;;;;;;5012866;28;20491;-67
2023/05/02 11:02:29;;;;;;;1.83;0.40;;;10.80;99.90;;;;;;5014204;28;20050;-69
2023/05/02 11:05:03;;;;;;;1.17;0.40;;;10.80;99.90;;;;;;5014111;28;20046;-68
2023/05/02 11:07:34;;;;;;;2.15;0.35;;;10.70;99.90;;;;;;5015028;28;20050;-67
2023/05/02 11:10:21;;;;;;;1.08;0.40;;;10.80;99.90;;;;;;5014705;28;20129;-68
2023/05/02 11:12:50;;;;;;;1.25;0.40;;;10.90;99.90;;;;;;5012994;28;20056;-68
2023/05/02 11:15:28;;;;;;;2.67;0.70;;;11.00;99.90;;;;;;5014754;28;20085;-70
2023/05/02 11:18:13;;;;;;;3.83;0.40;;;11.20;99.90;;;;;;5013096;28;20402;-67
2023/05/02 11:20:40;;;;;;;2.22;0.47;;;11.30;99.90;;;;;;5013989;28;20052;-68
2023/05/02 11:23:23;;;;;;;1.88;0.50;;;11.50;99.90;;;;;;4996766;28;20141;-68
2023/05/02 11:26:02;;;;;;;2.83;0.40;;;11.50;99.90;;;;;;5012922;28;20120;-69
2023/05/02 11:28:40;;;;;;;1.63;0.32;;;11.50;99.90;;;;;;5014381;28;20069;-69
2023/05/02 11:31:09;;;;;;;2.28;0.40;;;11.60;99.90;;;;;;5014573;28;20121;-66
2023/05/02 11:33:35;;;;;;;1.63;0.30;;;11.50;99.90;;;;;;5012675;28;20042;-68
2023/05/02 11:36:01;;;;;;;1.63;0.40;;;11.40;99.90;;;;;;5013928;28;20042;-68
2023/05/02 11:38:35;;;;;;;1.40;0.30;;;11.40;99.90;;;;;;5013768;28;20081;-71
2023/05/02 11:41:03;;;;;;;2.80;0.30;;;11.50;99.90;;;;;;5013570;28;20038;-71
2023/05/02 11:43:29;;;;;;;0.80;0.40;;;11.50;99.90;;;;;;5013711;28;20041;-70
2023/05/02 11:45:58;;;;;;;3.15;0.50;;;11.60;99.90;;;;;;5013968;28;20049;-72
2023/05/02 11:48:26;;;;;;;2.13;0.60;;;11.60;99.90;;;;;;5013352;28;20520;-67
2023/05/02 11:50:54;;;;;;;3.75;0.65;;;11.50;99.90;;;;;;5013016;28;20429;-69
2023/05/02 11:53:28;;;;;;;1.55;0.40;;;11.60;99.90;;;;;;5012296;28;20042;-66
2023/05/02 11:55:56;;;;;;;3.47;0.60;;;11.40;99.90;;;;;;5013675;28;20065;-69
2023/05/02 11:58:24;;;;;;;2.67;0.60;;;11.30;99.90;;;;;;5013553;28;20482;-71
2023/05/02 12:00:51;;;;;;;2.22;0.45;;;11.40;99.90;;;;;;5013427;28;20058;-76
2023/05/02 12:03:21;;;;;;;1.20;0.40;;;11.40;99.90;;;;;;5012399;28;20046;-69
2023/05/02 12:05:46;;;;;;;2.00;0.50;;;11.30;99.90;;;;;;5013620;28;20053;-70
2023/05/02 12:08:27;;;;;;;3.15;0.50;;;11.30;99.90;;;;;;5012417;28;20382;-67
2023/05/02 12:10:54;;;;;;;1.92;0.50;;;11.20;99.90;;;;;;5013782;28;20560;-69
2023/05/02 12:13:22;;;;;;;1.77;0.60;;;11.20;99.90;;;;;;5015975;28;20478;-71
2023/05/02 12:15:50;;;;;;;1.80;0.30;;;11.20;99.90;;;;;;4999913;28;20054;-69
2023/05/02 12:18:17;;;;;;;2.83;0.45;;;11.20;99.90;;;;;;5017083;28;20133;-67
2023/05/02 12:20:44;;;;;;;1.30;0.30;;;11.20;99.90;;;;;;5017687;28;20103;-68
2023/05/02 12:23:10;;;;;;;1.08;0.30;;;11.20;99.90;;;;;;5017116;28;20054;-69
2023/05/02 12:25:41;;;;;;;1.25;0.30;;;11.40;99.90;;;;;;5017130;28;20046;-67
2023/05/02 12:28:07;;;;;;;0.50;0.25;;;11.60;99.90;;;;;;5015865;28;20050;-71
2023/05/02 12:30:37;;;;;;;1.98;0.40;;;11.80;99.90;;;;;;5017582;28;20049;-68
2023/05/02 12:33:03;;;;;;;1.55;0.40;;;11.80;99.90;;;;;;4999480;28;20046;-66
2023/05/02 12:35:30;;;;;;;1.42;0.30;;;11.90;99.90;;;;;;5017235;28;20049;-67
2023/05/02 12:38:17;;;;;;;1.10;0.32;;;11.90;99.90;;;;;;5015711;28;20045;-66
2023/05/02 12:40:51;;;;;;;0.60;0.28;;;11.90;99.90;;;;;;5017094;28;20046;-68
2023/05/02 12:43:17;;;;;;;1.25;0.30;;;11.90;99.90;;;;;;5015736;28;20474;-65
2023/05/02 12:45:43;;;;;;;1.25;0.30;;;11.80;99.90;;;;;;5015401;28;20054;-66
2023/05/02 12:48:22;;;;;;;1.02;0.30;;;11.80;99.90;;;;;;5016635;28;20073;-67
2023/05/02 12:50:48;;;;;;;0.57;0.30;;;11.80;99.90;;;;;;5015881;28;20046;-70
2023/05/02 12:53:14;;;;;;;1.08;0.40;;;11.80;99.90;;;;;;5016440;28;20041;-67
2023/05/02 12:55:40;;;;;;;2.30;0.30;;;11.90;99.90;;;;;;5015370;28;20069;-65
2023/05/02 12:58:08;;;;;;;3.30;0.30;;;11.90;99.90;;;;;;5016010;28;20054;-66
2023/05/02 13:00:36;;;;;;;1.80;0.38;;;12.00;99.90;;;;;;5016470;28;20060;-66
2023/05/02 13:03:02;;;;;;;0.40;0.25;;;11.90;99.90;;;;;;5016319;28;20056;-68